sensor_id;sensor_type;location;lat;lon;timestamp;P1;durP1;ratioP1;P2;durP2;ratioP2
78312;SDS011;67568;47.438;21.408;2023-03-01T00:01:21;19.70;;;8.85;;
78312;SDS011;67568;47.438;21.408;2023-03-01T00:03:51;16.27;;;7.47;;
78312;SDS011;67568;47.438;21.408;2023-03-01T00:06:19;17.75;;;7.95;;
78312;SDS011;67568;47.438;21.408;2023-03-01T00:08:46;17.15;;;8.02;;
78312;SDS011;67568;47.438;21.408;2023-03-01T00:11:16;15.87;;;7.70;;
78312;SDS011;67568;47.438;21.408;2023-03-01T00:14:13;21.42;;;9.10;;
78312;SDS011;67568;47.438;21.408;2023-03-01T00:16:42;20.05;;;9.27;;
78312;SDS011;67568;47.438;21.408;2023-03-01T00:19:13;17.55;;;8.85;;
78312;SDS011;67568;47.438;21.408;2023-03-01T00:21:43;16.23;;;8.48;;
78312;SDS011;67568;47.438;21.408;2023-03-01T00:24:16;16.77;;;8.30;;
78312;SDS011;67568;47.438;21.408;2023-03-01T00:26:46;15.70;;;7.70;;
78312;SDS011;67568;47.438;21.408;2023-03-01T00:29:15;18.23;;;8.50;;
78312;SDS011;67568;47.438;21.408;2023-03-01T00:31:42;16.10;;;8.18;;
78312;SDS011;67568;47.438;21.408;2023-03-01T00:34:09;15.88;;;7.10;;
78312;SDS011;67568;47.438;21.408;2023-03-01T00:36:36;16.70;;;7.80;;
78312;SDS011;67568;47.438;21.408;2023-03-01T00:39:05;15.10;;;7.50;;
78312;SDS011;67568;47.438;21.408;2023-03-01T00:41:38;16.33;;;7.85;;
78312;SDS011;67568;47.438;21.408;2023-03-01T00:44:04;15.30;;;7.13;;
78312;SDS011;67568;47.438;21.408;2023-03-01T00:46:31;17.50;;;8.32;;
78312;SDS011;67568;47.438;21.408;2023-03-01T00:48:58;16.10;;;7.80;;
78312;SDS011;67568;47.438;21.408;2023-03-01T00:51:28;15.48;;;7.57;;
78312;SDS011;67568;47.438;21.408;2023-03-01T00:53:56;16.20;;;7.65;;
78312;SDS011;67568;47.438;21.408;2023-03-01T00:56:24;17.13;;;7.57;;
78312;SDS011;67568;47.438;21.408;2023-03-01T00:58:52;16.45;;;8.30;;
78312;SDS011;67568;47.438;21.408;2023-03-01T01:01:20;16.57;;;7.70;;
78312;SDS011;67568;47.438;21.408;2023-03-01T01:03:52;16.65;;;7.60;;
78312;SDS011;67568;47.438;21.408;2023-03-01T01:06:22;16.45;;;7.25;;
78312;SDS011;67568;47.438;21.408;2023-03-01T01:08:50;16.50;;;7.97;;
78312;SDS011;67568;47.438;21.408;2023-03-01T01:11:18;16.38;;;7.88;;
78312;SDS011;67568;47.438;21.408;2023-03-01T01:13:50;14.30;;;7.17;;
78312;SDS011;67568;47.438;21.408;2023-03-01T01:16:20;14.10;;;7.35;;
78312;SDS011;67568;47.438;21.408;2023-03-01T01:18:48;17.10;;;8.02;;
78312;SDS011;67568;47.438;21.408;2023-03-01T01:21:16;16.40;;;7.63;;
78312;SDS011;67568;47.438;21.408;2023-03-01T01:23:47;19.35;;;9.52;;
78312;SDS011;67568;47.438;21.408;2023-03-01T01:26:24;18.50;;;8.93;;
78312;SDS011;67568;47.438;21.408;2023-03-01T01:28:57;18.85;;;8.68;;
78312;SDS011;67568;47.438;21.408;2023-03-01T01:31:24;16.70;;;8.25;;
78312;SDS011;67568;47.438;21.408;2023-03-01T01:33:53;16.15;;;7.80;;
78312;SDS011;67568;47.438;21.408;2023-03-01T01:36:27;15.60;;;7.45;;
78312;SDS011;67568;47.438;21.408;2023-03-01T01:38:55;15.07;;;7.50;;
78312;SDS011;67568;47.438;21.408;2023-03-01T01:41:22;17.48;;;8.13;;
78312;SDS011;67568;47.438;21.408;2023-03-01T01:44:10;16.90;;;7.88;;
78312;SDS011;67568;47.438;21.408;2023-03-01T01:46:37;14.63;;;7.43;;
78312;SDS011;67568;47.438;21.408;2023-03-01T01:49:10;14.77;;;7.57;;
78312;SDS011;67568;47.438;21.408;2023-03-01T01:51:40;14.87;;;7.33;;
78312;SDS011;67568;47.438;21.408;2023-03-01T01:54:33;14.48;;;7.05;;
78312;SDS011;67568;47.438;21.408;2023-03-01T01:57:03;15.00;;;7.30;;
78312;SDS011;67568;47.438;21.408;2023-03-01T01:59:35;14.52;;;7.40;;
78312;SDS011;67568;47.438;21.408;2023-03-01T02:02:03;15.40;;;6.85;;
78312;SDS011;67568;47.438;21.408;2023-03-01T02:04:31;15.23;;;7.03;;
78312;SDS011;67568;47.438;21.408;2023-03-01T02:07:03;15.77;;;7.35;;
78312;SDS011;67568;47.438;21.408;2023-03-01T02:09:35;15.18;;;6.70;;
78312;SDS011;67568;47.438;21.408;2023-03-01T02:12:02;13.35;;;7.28;;
78312;SDS011;67568;47.438;21.408;2023-03-01T02:14:30;15.57;;;7.20;;
78312;SDS011;67568;47.438;21.408;2023-03-01T02:16:57;15.23;;;7.60;;
78312;SDS011;67568;47.438;21.408;2023-03-01T02:19:32;15.35;;;7.35;;
78312;SDS011;67568;47.438;21.408;2023-03-01T02:22:24;15.32;;;7.43;;
78312;SDS011;67568;47.438;21.408;2023-03-01T02:25:00;14.93;;;7.40;;
78312;SDS011;67568;47.438;21.408;2023-03-01T02:30:26;14.93;;;7.13;;
78312;SDS011;67568;47.438;21.408;2023-03-01T02:32:55;14.70;;;7.13;;
78312;SDS011;67568;47.438;21.408;2023-03-01T02:35:25;17.10;;;7.22;;
78312;SDS011;67568;47.438;21.408;2023-03-01T02:37:54;14.07;;;7.55;;
78312;SDS011;67568;47.438;21.408;2023-03-01T02:40:21;15.95;;;7.75;;
78312;SDS011;67568;47.438;21.408;2023-03-01T02:42:54;16.70;;;7.60;;
78312;SDS011;67568;47.438;21.408;2023-03-01T02:45:23;13.85;;;6.93;;
78312;SDS011;67568;47.438;21.408;2023-03-01T02:47:53;16.50;;;7.18;;
78312;SDS011;67568;47.438;21.408;2023-03-01T02:56:01;12.37;;;6.33;;
78312;SDS011;67568;47.438;21.408;2023-03-01T02:58:28;15.98;;;7.50;;
78312;SDS011;67568;47.438;21.408;2023-03-01T03:00:55;17.02;;;6.80;;
78312;SDS011;67568;47.438;21.408;2023-03-01T03:03:27;14.82;;;6.95;;
78312;SDS011;67568;47.438;21.408;2023-03-01T03:05:54;13.98;;;6.97;;
78312;SDS011;67568;47.438;21.408;2023-03-01T03:08:21;12.93;;;6.87;;
78312;SDS011;67568;47.438;21.408;2023-03-01T03:10:47;16.02;;;7.60;;
78312;SDS011;67568;47.438;21.408;2023-03-01T03:13:14;16.50;;;7.53;;
78312;SDS011;67568;47.438;21.408;2023-03-01T03:15:42;13.43;;;6.47;;
78312;SDS011;67568;47.438;21.408;2023-03-01T03:18:10;14.02;;;7.07;;
78312;SDS011;67568;47.438;21.408;2023-03-01T03:20:39;16.03;;;7.10;;
78312;SDS011;67568;47.438;21.408;2023-03-01T03:23:07;13.90;;;6.80;;
78312;SDS011;67568;47.438;21.408;2023-03-01T03:25:34;13.38;;;6.90;;
78312;SDS011;67568;47.438;21.408;2023-03-01T03:28:01;15.15;;;7.28;;
78312;SDS011;67568;47.438;21.408;2023-03-01T03:30:29;13.00;;;6.70;;
78312;SDS011;67568;47.438;21.408;2023-03-01T03:32:58;13.57;;;6.77;;
78312;SDS011;67568;47.438;21.408;2023-03-01T03:37:53;15.82;;;7.15;;
78312;SDS011;67568;47.438;21.408;2023-03-01T03:40:20;14.50;;;6.38;;
78312;SDS011;67568;47.438;21.408;2023-03-01T03:42:46;15.05;;;6.97;;
78312;SDS011;67568;47.438;21.408;2023-03-01T03:45:13;14.50;;;6.83;;
78312;SDS011;67568;47.438;21.408;2023-03-01T03:47:41;18.02;;;7.57;;
78312;SDS011;67568;47.438;21.408;2023-03-01T03:50:08;15.57;;;7.45;;
78312;SDS011;67568;47.438;21.408;2023-03-01T03:52:41;17.70;;;6.97;;
78312;SDS011;67568;47.438;21.408;2023-03-01T03:55:11;16.23;;;7.03;;
78312;SDS011;67568;47.438;21.408;2023-03-01T03:57:42;14.63;;;7.47;;
78312;SDS011;67568;47.438;21.408;2023-03-01T04:00:09;14.85;;;7.05;;
78312;SDS011;67568;47.438;21.408;2023-03-01T04:02:39;14.75;;;7.13;;
78312;SDS011;67568;47.438;21.408;2023-03-01T04:05:07;15.88;;;7.15;;
78312;SDS011;67568;47.438;21.408;2023-03-01T04:07:35;15.55;;;7.70;;
78312;SDS011;67568;47.438;21.408;2023-03-01T04:10:03;13.70;;;6.73;;
78312;SDS011;67568;47.438;21.408;2023-03-01T04:12:30;15.80;;;7.45;;
78312;SDS011;67568;47.438;21.408;2023-03-01T04:14:57;15.05;;;7.82;;
78312;SDS011;67568;47.438;21.408;2023-03-01T04:17:24;14.88;;;7.15;;
78312;SDS011;67568;47.438;21.408;2023-03-01T04:19:50;14.48;;;7.20;;
78312;SDS011;67568;47.438;21.408;2023-03-01T04:22:19;14.80;;;7.60;;
78312;SDS011;67568;47.438;21.408;2023-03-01T04:24:48;14.95;;;7.57;;
78312;SDS011;67568;47.438;21.408;2023-03-01T04:27:14;14.55;;;7.43;;
78312;SDS011;67568;47.438;21.408;2023-03-01T04:29:41;19.08;;;8.10;;
78312;SDS011;67568;47.438;21.408;2023-03-01T04:32:07;14.02;;;7.28;;
78312;SDS011;67568;47.438;21.408;2023-03-01T04:34:34;16.57;;;7.93;;
78312;SDS011;67568;47.438;21.408;2023-03-01T04:37:01;15.88;;;7.57;;
78312;SDS011;67568;47.438;21.408;2023-03-01T04:39:28;18.00;;;7.95;;
78312;SDS011;67568;47.438;21.408;2023-03-01T04:41:57;15.70;;;7.90;;
78312;SDS011;67568;47.438;21.408;2023-03-01T04:44:26;17.02;;;7.68;;
78312;SDS011;67568;47.438;21.408;2023-03-01T04:46:53;18.03;;;8.50;;
78312;SDS011;67568;47.438;21.408;2023-03-01T04:49:19;16.48;;;7.95;;
78312;SDS011;67568;47.438;21.408;2023-03-01T04:51:46;20.63;;;8.38;;
78312;SDS011;67568;47.438;21.408;2023-03-01T04:54:12;16.83;;;8.07;;
78312;SDS011;67568;47.438;21.408;2023-03-01T04:56:39;17.90;;;8.65;;
78312;SDS011;67568;47.438;21.408;2023-03-01T04:59:06;16.83;;;8.63;;
78312;SDS011;67568;47.438;21.408;2023-03-01T05:01:32;18.08;;;7.90;;
78312;SDS011;67568;47.438;21.408;2023-03-01T05:04:00;14.73;;;7.45;;
78312;SDS011;67568;47.438;21.408;2023-03-01T05:06:27;19.23;;;8.93;;
78312;SDS011;67568;47.438;21.408;2023-03-01T05:08:54;17.27;;;8.48;;
78312;SDS011;67568;47.438;21.408;2023-03-01T05:11:21;17.57;;;8.30;;
78312;SDS011;67568;47.438;21.408;2023-03-01T05:13:48;20.17;;;9.43;;
78312;SDS011;67568;47.438;21.408;2023-03-01T05:16:14;17.13;;;9.25;;
78312;SDS011;67568;47.438;21.408;2023-03-01T05:18:41;15.25;;;8.27;;
78312;SDS011;67568;47.438;21.408;2023-03-01T05:21:11;18.65;;;8.68;;
78312;SDS011;67568;47.438;21.408;2023-03-01T05:23:40;18.17;;;9.00;;
78312;SDS011;67568;47.438;21.408;2023-03-01T05:26:07;16.85;;;8.40;;
78312;SDS011;67568;47.438;21.408;2023-03-01T05:28:52;18.77;;;8.80;;
78312;SDS011;67568;47.438;21.408;2023-03-01T05:31:19;18.88;;;8.77;;
78312;SDS011;67568;47.438;21.408;2023-03-01T05:33:45;17.77;;;8.52;;
78312;SDS011;67568;47.438;21.408;2023-03-01T05:36:12;22.37;;;9.30;;
78312;SDS011;67568;47.438;21.408;2023-03-01T05:38:38;18.33;;;8.50;;
78312;SDS011;67568;47.438;21.408;2023-03-01T05:41:05;16.65;;;8.18;;
78312;SDS011;67568;47.438;21.408;2023-03-01T05:43:40;18.15;;;8.82;;
78312;SDS011;67568;47.438;21.408;2023-03-01T05:46:07;16.15;;;8.35;;
78312;SDS011;67568;47.438;21.408;2023-03-01T05:48:33;17.33;;;7.90;;
78312;SDS011;67568;47.438;21.408;2023-03-01T05:51:01;18.35;;;8.05;;
78312;SDS011;67568;47.438;21.408;2023-03-01T05:53:28;18.00;;;8.85;;
78312;SDS011;67568;47.438;21.408;2023-03-01T05:55:55;15.35;;;7.43;;
78312;SDS011;67568;47.438;21.408;2023-03-01T05:58:21;15.98;;;7.78;;
78312;SDS011;67568;47.438;21.408;2023-03-01T06:00:48;19.73;;;7.87;;
78312;SDS011;67568;47.438;21.408;2023-03-01T06:03:19;16.05;;;7.90;;
78312;SDS011;67568;47.438;21.408;2023-03-01T06:05:45;16.63;;;7.63;;
78312;SDS011;67568;47.438;21.408;2023-03-01T06:08:12;19.00;;;8.05;;
78312;SDS011;67568;47.438;21.408;2023-03-01T06:10:40;15.70;;;8.02;;
78312;SDS011;67568;47.438;21.408;2023-03-01T06:13:06;17.70;;;7.87;;
78312;SDS011;67568;47.438;21.408;2023-03-01T06:15:33;15.77;;;7.55;;
78312;SDS011;67568;47.438;21.408;2023-03-01T06:18:00;14.82;;;7.43;;
78312;SDS011;67568;47.438;21.408;2023-03-01T06:20:27;12.82;;;7.07;;
78312;SDS011;67568;47.438;21.408;2023-03-01T06:22:55;15.80;;;8.13;;
78312;SDS011;67568;47.438;21.408;2023-03-01T06:25:23;15.47;;;6.90;;
78312;SDS011;67568;47.438;21.408;2023-03-01T06:27:51;15.30;;;7.30;;
78312;SDS011;67568;47.438;21.408;2023-03-01T06:30:19;20.05;;;7.78;;
78312;SDS011;67568;47.438;21.408;2023-03-01T06:32:47;13.75;;;7.32;;
78312;SDS011;67568;47.438;21.408;2023-03-01T06:35:17;14.45;;;7.18;;
78312;SDS011;67568;47.438;21.408;2023-03-01T06:37:45;15.20;;;7.57;;
78312;SDS011;67568;47.438;21.408;2023-03-01T06:40:13;16.38;;;7.35;;
78312;SDS011;67568;47.438;21.408;2023-03-01T06:42:41;18.40;;;7.60;;
78312;SDS011;67568;47.438;21.408;2023-03-01T06:45:09;16.15;;;8.25;;
78312;SDS011;67568;47.438;21.408;2023-03-01T06:47:38;14.00;;;7.20;;
78312;SDS011;67568;47.438;21.408;2023-03-01T06:50:05;14.90;;;7.60;;
78312;SDS011;67568;47.438;21.408;2023-03-01T06:52:32;17.38;;;8.60;;
78312;SDS011;67568;47.438;21.408;2023-03-01T06:54:59;17.52;;;8.88;;
78312;SDS011;67568;47.438;21.408;2023-03-01T06:57:26;16.33;;;8.85;;
78312;SDS011;67568;47.438;21.408;2023-03-01T06:59:53;18.65;;;8.48;;
78312;SDS011;67568;47.438;21.408;2023-03-01T07:02:20;18.23;;;8.43;;
78312;SDS011;67568;47.438;21.408;2023-03-01T07:04:48;18.42;;;9.07;;
78312;SDS011;67568;47.438;21.408;2023-03-01T07:07:16;20.00;;;10.40;;
78312;SDS011;67568;47.438;21.408;2023-03-01T07:09:43;18.63;;;9.80;;
78312;SDS011;67568;47.438;21.408;2023-03-01T07:12:11;16.80;;;8.63;;
78312;SDS011;67568;47.438;21.408;2023-03-01T07:14:38;18.47;;;8.83;;
78312;SDS011;67568;47.438;21.408;2023-03-01T07:17:04;15.73;;;7.63;;
78312;SDS011;67568;47.438;21.408;2023-03-01T07:19:34;18.42;;;8.52;;
78312;SDS011;67568;47.438;21.408;2023-03-01T07:22:00;17.25;;;8.88;;
78312;SDS011;67568;47.438;21.408;2023-03-01T07:24:27;17.50;;;7.93;;
78312;SDS011;67568;47.438;21.408;2023-03-01T07:26:54;16.57;;;8.23;;
78312;SDS011;67568;47.438;21.408;2023-03-01T07:29:20;16.40;;;9.13;;
78312;SDS011;67568;47.438;21.408;2023-03-01T07:31:47;18.95;;;9.57;;
78312;SDS011;67568;47.438;21.408;2023-03-01T07:34:15;18.48;;;9.63;;
78312;SDS011;67568;47.438;21.408;2023-03-01T07:36:42;19.05;;;8.27;;
78312;SDS011;67568;47.438;21.408;2023-03-01T07:39:09;16.80;;;7.70;;
78312;SDS011;67568;47.438;21.408;2023-03-01T07:41:37;15.43;;;8.35;;
78312;SDS011;67568;47.438;21.408;2023-03-01T07:44:03;27.60;;;9.73;;
78312;SDS011;67568;47.438;21.408;2023-03-01T07:46:33;16.50;;;8.32;;
78312;SDS011;67568;47.438;21.408;2023-03-01T07:49:00;19.35;;;9.07;;
78312;SDS011;67568;47.438;21.408;2023-03-01T07:51:27;14.67;;;7.80;;
78312;SDS011;67568;47.438;21.408;2023-03-01T07:53:56;17.02;;;8.55;;
78312;SDS011;67568;47.438;21.408;2023-03-01T07:56:23;19.42;;;8.20;;
78312;SDS011;67568;47.438;21.408;2023-03-01T07:58:49;20.52;;;8.57;;
78312;SDS011;67568;47.438;21.408;2023-03-01T08:01:17;19.08;;;9.13;;
78312;SDS011;67568;47.438;21.408;2023-03-01T08:03:45;18.80;;;8.90;;
78312;SDS011;67568;47.438;21.408;2023-03-01T08:06:13;18.65;;;8.57;;
78312;SDS011;67568;47.438;21.408;2023-03-01T08:08:42;14.65;;;8.18;;
78312;SDS011;67568;47.438;21.408;2023-03-01T08:11:12;17.77;;;8.65;;
78312;SDS011;67568;47.438;21.408;2023-03-01T08:13:41;21.40;;;9.45;;
78312;SDS011;67568;47.438;21.408;2023-03-01T08:16:12;17.07;;;8.40;;
78312;SDS011;67568;47.438;21.408;2023-03-01T08:18:40;17.17;;;8.48;;
78312;SDS011;67568;47.438;21.408;2023-03-01T08:21:09;17.67;;;9.43;;
78312;SDS011;67568;47.438;21.408;2023-03-01T08:23:38;17.35;;;8.85;;
78312;SDS011;67568;47.438;21.408;2023-03-01T08:26:07;21.05;;;8.90;;
78312;SDS011;67568;47.438;21.408;2023-03-01T08:28:36;16.23;;;8.33;;
78312;SDS011;67568;47.438;21.408;2023-03-01T08:31:15;16.17;;;8.82;;
78312;SDS011;67568;47.438;21.408;2023-03-01T08:33:46;15.13;;;8.43;;
78312;SDS011;67568;47.438;21.408;2023-03-01T08:36:14;16.65;;;8.85;;
78312;SDS011;67568;47.438;21.408;2023-03-01T08:38:41;19.25;;;8.98;;
78312;SDS011;67568;47.438;21.408;2023-03-01T08:41:08;17.13;;;8.63;;
78312;SDS011;67568;47.438;21.408;2023-03-01T08:43:35;16.30;;;8.77;;
78312;SDS011;67568;47.438;21.408;2023-03-01T08:46:01;21.88;;;11.73;;
78312;SDS011;67568;47.438;21.408;2023-03-01T08:48:28;16.90;;;9.13;;
78312;SDS011;67568;47.438;21.408;2023-03-01T08:50:55;16.95;;;8.80;;
78312;SDS011;67568;47.438;21.408;2023-03-01T08:53:22;15.47;;;7.60;;
78312;SDS011;67568;47.438;21.408;2023-03-01T08:55:49;15.65;;;8.60;;
78312;SDS011;67568;47.438;21.408;2023-03-01T08:58:16;15.48;;;8.35;;
78312;SDS011;67568;47.438;21.408;2023-03-01T09:00:43;16.17;;;8.38;;
78312;SDS011;67568;47.438;21.408;2023-03-01T09:03:11;16.50;;;8.02;;
78312;SDS011;67568;47.438;21.408;2023-03-01T09:05:38;16.53;;;8.17;;
78312;SDS011;67568;47.438;21.408;2023-03-01T09:08:04;15.05;;;7.97;;
78312;SDS011;67568;47.438;21.408;2023-03-01T09:10:37;16.50;;;8.68;;
78312;SDS011;67568;47.438;21.408;2023-03-01T09:13:04;14.45;;;7.70;;
78312;SDS011;67568;47.438;21.408;2023-03-01T09:15:31;15.30;;;7.93;;
78312;SDS011;67568;47.438;21.408;2023-03-01T09:17:57;19.77;;;7.73;;
78312;SDS011;67568;47.438;21.408;2023-03-01T09:20:24;16.08;;;7.90;;
78312;SDS011;67568;47.438;21.408;2023-03-01T09:22:51;18.25;;;8.25;;
78312;SDS011;67568;47.438;21.408;2023-03-01T09:25:18;18.65;;;8.40;;
78312;SDS011;67568;47.438;21.408;2023-03-01T09:27:44;14.45;;;7.63;;
78312;SDS011;67568;47.438;21.408;2023-03-01T09:30:13;19.20;;;7.93;;
78312;SDS011;67568;47.438;21.408;2023-03-01T09:32:40;18.58;;;7.80;;
78312;SDS011;67568;47.438;21.408;2023-03-01T09:35:06;14.25;;;7.15;;
78312;SDS011;67568;47.438;21.408;2023-03-01T09:37:34;16.80;;;7.20;;
78312;SDS011;67568;47.438;21.408;2023-03-01T09:40:02;13.63;;;7.85;;
78312;SDS011;67568;47.438;21.408;2023-03-01T09:42:34;12.67;;;7.20;;
78312;SDS011;67568;47.438;21.408;2023-03-01T09:45:05;15.57;;;8.07;;
78312;SDS011;67568;47.438;21.408;2023-03-01T09:47:38;13.52;;;7.68;;
78312;SDS011;67568;47.438;21.408;2023-03-01T09:50:06;15.38;;;7.88;;
78312;SDS011;67568;47.438;21.408;2023-03-01T09:55:46;13.47;;;7.83;;
78312;SDS011;67568;47.438;21.408;2023-03-01T10:01:25;15.40;;;7.65;;
78312;SDS011;67568;47.438;21.408;2023-03-01T10:09:47;14.97;;;7.63;;
78312;SDS011;67568;47.438;21.408;2023-03-01T10:14:48;15.27;;;7.72;;
78312;SDS011;67568;47.438;21.408;2023-03-01T10:20:15;14.02;;;7.00;;
78312;SDS011;67568;47.438;21.408;2023-03-01T10:22:45;14.87;;;7.80;;
78312;SDS011;67568;47.438;21.408;2023-03-01T10:25:14;12.98;;;7.20;;
78312;SDS011;67568;47.438;21.408;2023-03-01T10:27:54;12.18;;;7.20;;
78312;SDS011;67568;47.438;21.408;2023-03-01T10:33:02;14.60;;;7.75;;
78312;SDS011;67568;47.438;21.408;2023-03-01T10:35:31;13.83;;;7.10;;
78312;SDS011;67568;47.438;21.408;2023-03-01T10:38:04;11.82;;;7.00;;
78312;SDS011;67568;47.438;21.408;2023-03-01T10:40:33;10.98;;;7.00;;
78312;SDS011;67568;47.438;21.408;2023-03-01T10:43:05;13.10;;;6.63;;
78312;SDS011;67568;47.438;21.408;2023-03-01T10:50:42;12.63;;;7.13;;
78312;SDS011;67568;47.438;21.408;2023-03-01T10:53:48;12.38;;;7.07;;
78312;SDS011;67568;47.438;21.408;2023-03-01T10:56:07;13.00;;;7.22;;
78312;SDS011;67568;47.438;21.408;2023-03-01T10:58:36;14.75;;;7.75;;
78312;SDS011;67568;47.438;21.408;2023-03-01T11:01:08;15.10;;;7.80;;
78312;SDS011;67568;47.438;21.408;2023-03-01T11:06:41;14.32;;;8.27;;
78312;SDS011;67568;47.438;21.408;2023-03-01T11:09:21;16.92;;;9.32;;
78312;SDS011;67568;47.438;21.408;2023-03-01T11:11:53;11.88;;;6.82;;
78312;SDS011;67568;47.438;21.408;2023-03-01T11:14:22;11.67;;;6.43;;
78312;SDS011;67568;47.438;21.408;2023-03-01T11:17:11;11.48;;;6.78;;
78312;SDS011;67568;47.438;21.408;2023-03-01T11:19:41;11.50;;;6.05;;
78312;SDS011;67568;47.438;21.408;2023-03-01T11:22:19;13.40;;;7.40;;
78312;SDS011;67568;47.438;21.408;2023-03-01T11:24:53;11.18;;;6.40;;
78312;SDS011;67568;47.438;21.408;2023-03-01T11:27:41;13.07;;;6.30;;
78312;SDS011;67568;47.438;21.408;2023-03-01T11:30:24;11.32;;;5.97;;
78312;SDS011;67568;47.438;21.408;2023-03-01T11:35:41;10.82;;;5.85;;
78312;SDS011;67568;47.438;21.408;2023-03-01T11:49:08;11.70;;;5.65;;
78312;SDS011;67568;47.438;21.408;2023-03-01T12:01:05;9.23;;;5.00;;
78312;SDS011;67568;47.438;21.408;2023-03-01T12:03:57;10.80;;;5.53;;
78312;SDS011;67568;47.438;21.408;2023-03-01T12:12:06;13.98;;;5.05;;
78312;SDS011;67568;47.438;21.408;2023-03-01T12:15:06;12.20;;;5.47;;
78312;SDS011;67568;47.438;21.408;2023-03-01T12:20:27;10.82;;;4.80;;
78312;SDS011;67568;47.438;21.408;2023-03-01T12:26:03;9.77;;;4.65;;
78312;SDS011;67568;47.438;21.408;2023-03-01T12:46:33;10.45;;;5.00;;
78312;SDS011;67568;47.438;21.408;2023-03-01T12:51:33;25.77;;;11.83;;
78312;SDS011;67568;47.438;21.408;2023-03-01T12:54:05;20.35;;;8.60;;
78312;SDS011;67568;47.438;21.408;2023-03-01T12:56:40;13.70;;;5.20;;
78312;SDS011;67568;47.438;21.408;2023-03-01T13:05:01;9.80;;;5.07;;
78312;SDS011;67568;47.438;21.408;2023-03-01T13:10:56;11.77;;;4.68;;
78312;SDS011;67568;47.438;21.408;2023-03-01T13:13:29;9.63;;;4.85;;
78312;SDS011;67568;47.438;21.408;2023-03-01T13:16:19;12.02;;;5.32;;
78312;SDS011;67568;47.438;21.408;2023-03-01T13:19:18;10.17;;;4.77;;
78312;SDS011;67568;47.438;21.408;2023-03-01T13:21:46;12.13;;;4.75;;
78312;SDS011;67568;47.438;21.408;2023-03-01T13:29:46;9.73;;;4.45;;
78312;SDS011;67568;47.438;21.408;2023-03-01T13:37:40;9.93;;;5.03;;
78312;SDS011;67568;47.438;21.408;2023-03-01T13:42:44;10.80;;;4.38;;
78312;SDS011;67568;47.438;21.408;2023-03-01T13:51:00;12.00;;;3.88;;
78312;SDS011;67568;47.438;21.408;2023-03-01T13:53:31;11.68;;;4.10;;
78312;SDS011;67568;47.438;21.408;2023-03-01T13:56:12;9.88;;;4.15;;
78312;SDS011;67568;47.438;21.408;2023-03-01T13:58:44;14.73;;;5.10;;
78312;SDS011;67568;47.438;21.408;2023-03-01T14:03:56;9.93;;;4.40;;
78312;SDS011;67568;47.438;21.408;2023-03-01T14:06:28;11.13;;;5.05;;
78312;SDS011;67568;47.438;21.408;2023-03-01T14:09:10;13.20;;;4.65;;
78312;SDS011;67568;47.438;21.408;2023-03-01T14:14:52;12.35;;;4.47;;
78312;SDS011;67568;47.438;21.408;2023-03-01T14:20:12;10.70;;;4.68;;
78312;SDS011;67568;47.438;21.408;2023-03-01T14:23:09;9.07;;;4.20;;
78312;SDS011;67568;47.438;21.408;2023-03-01T14:25:39;11.10;;;3.97;;
78312;SDS011;67568;47.438;21.408;2023-03-01T14:28:24;9.05;;;4.38;;
78312;SDS011;67568;47.438;21.408;2023-03-01T14:30:54;9.10;;;4.22;;
78312;SDS011;67568;47.438;21.408;2023-03-01T14:38:30;10.10;;;4.00;;
78312;SDS011;67568;47.438;21.408;2023-03-01T14:40:59;9.93;;;4.15;;
78312;SDS011;67568;47.438;21.408;2023-03-01T14:43:34;10.20;;;4.22;;
78312;SDS011;67568;47.438;21.408;2023-03-01T14:46:02;11.15;;;4.60;;
78312;SDS011;67568;47.438;21.408;2023-03-01T14:48:29;9.38;;;4.10;;
78312;SDS011;67568;47.438;21.408;2023-03-01T14:50:57;8.50;;;3.93;;
78312;SDS011;67568;47.438;21.408;2023-03-01T14:53:25;10.23;;;4.38;;
78312;SDS011;67568;47.438;21.408;2023-03-01T14:55:55;11.57;;;4.20;;
78312;SDS011;67568;47.438;21.408;2023-03-01T14:58:26;11.65;;;4.82;;
78312;SDS011;67568;47.438;21.408;2023-03-01T15:00:54;11.02;;;5.03;;
78312;SDS011;67568;47.438;21.408;2023-03-01T15:03:27;10.77;;;4.40;;
78312;SDS011;67568;47.438;21.408;2023-03-01T15:06:02;10.85;;;4.78;;
78312;SDS011;67568;47.438;21.408;2023-03-01T15:08:31;11.77;;;4.60;;
78312;SDS011;67568;47.438;21.408;2023-03-01T15:11:02;10.80;;;4.22;;
78312;SDS011;67568;47.438;21.408;2023-03-01T15:13:34;13.32;;;3.90;;
78312;SDS011;67568;47.438;21.408;2023-03-01T15:18:43;9.25;;;4.25;;
78312;SDS011;67568;47.438;21.408;2023-03-01T15:21:35;11.15;;;4.30;;
78312;SDS011;67568;47.438;21.408;2023-03-01T15:26:40;7.97;;;3.70;;
78312;SDS011;67568;47.438;21.408;2023-03-01T15:29:28;8.73;;;3.60;;
78312;SDS011;67568;47.438;21.408;2023-03-01T15:34:28;8.00;;;3.13;;
78312;SDS011;67568;47.438;21.408;2023-03-01T15:37:00;7.68;;;3.28;;
78312;SDS011;67568;47.438;21.408;2023-03-01T15:41:59;11.40;;;3.10;;
78312;SDS011;67568;47.438;21.408;2023-03-01T15:44:29;10.07;;;3.20;;
78312;SDS011;67568;47.438;21.408;2023-03-01T15:47:22;9.38;;;3.75;;
78312;SDS011;67568;47.438;21.408;2023-03-01T15:49:51;8.15;;;3.53;;
78312;SDS011;67568;47.438;21.408;2023-03-01T15:52:40;9.05;;;3.63;;
78312;SDS011;67568;47.438;21.408;2023-03-01T15:55:15;8.23;;;3.43;;
78312;SDS011;67568;47.438;21.408;2023-03-01T15:57:48;8.20;;;3.17;;
78312;SDS011;67568;47.438;21.408;2023-03-01T16:00:16;9.32;;;3.58;;
78312;SDS011;67568;47.438;21.408;2023-03-01T16:02:44;7.88;;;3.58;;
78312;SDS011;67568;47.438;21.408;2023-03-01T16:05:18;8.68;;;3.70;;
78312;SDS011;67568;47.438;21.408;2023-03-01T16:07:53;10.57;;;3.83;;
78312;SDS011;67568;47.438;21.408;2023-03-01T16:10:20;11.57;;;4.25;;
78312;SDS011;67568;47.438;21.408;2023-03-01T16:12:48;12.20;;;4.28;;
78312;SDS011;67568;47.438;21.408;2023-03-01T16:15:18;9.10;;;4.30;;
78312;SDS011;67568;47.438;21.408;2023-03-01T16:17:46;10.05;;;3.70;;
78312;SDS011;67568;47.438;21.408;2023-03-01T16:20:13;9.07;;;3.83;;
78312;SDS011;67568;47.438;21.408;2023-03-01T16:22:54;10.35;;;3.90;;
78312;SDS011;67568;47.438;21.408;2023-03-01T16:25:30;7.38;;;3.10;;
78312;SDS011;67568;47.438;21.408;2023-03-01T16:27:58;9.15;;;4.07;;
78312;SDS011;67568;47.438;21.408;2023-03-01T16:30:25;9.60;;;4.00;;
78312;SDS011;67568;47.438;21.408;2023-03-01T16:32:52;12.10;;;3.67;;
78312;SDS011;67568;47.438;21.408;2023-03-01T16:35:19;9.52;;;3.78;;
78312;SDS011;67568;47.438;21.408;2023-03-01T16:37:47;10.27;;;3.85;;
78312;SDS011;67568;47.438;21.408;2023-03-01T16:40:17;10.23;;;3.83;;
78312;SDS011;67568;47.438;21.408;2023-03-01T16:42:47;9.20;;;3.97;;
78312;SDS011;67568;47.438;21.408;2023-03-01T16:45:14;9.17;;;4.10;;
78312;SDS011;67568;47.438;21.408;2023-03-01T16:47:50;8.95;;;4.10;;
78312;SDS011;67568;47.438;21.408;2023-03-01T16:50:18;10.63;;;4.47;;
78312;SDS011;67568;47.438;21.408;2023-03-01T16:52:45;10.43;;;4.47;;
78312;SDS011;67568;47.438;21.408;2023-03-01T16:55:11;10.10;;;4.38;;
78312;SDS011;67568;47.438;21.408;2023-03-01T16:57:38;11.73;;;4.33;;
78312;SDS011;67568;47.438;21.408;2023-03-01T17:00:05;9.93;;;4.53;;
78312;SDS011;67568;47.438;21.408;2023-03-01T17:02:34;10.27;;;4.80;;
78312;SDS011;67568;47.438;21.408;2023-03-01T17:05:04;12.50;;;5.07;;
78312;SDS011;67568;47.438;21.408;2023-03-01T17:07:31;12.50;;;5.82;;